Terminal Aerodrome Forecast
Issued by NWS Tampa Bay Area, FL

Home | Current Version | Previous Version | Text Only | Print | Product List | Glossary On
Versions: 1 2 3 4 5 6 7 8 9 10 11 12 13 14 15 16 17 18 19 20 21 22 23 24 25 26
000
FTUS42 KTBW 230547
TAFTPA
TAF
KTPA 230547Z 2306/2406 20007KT P6SM SCT025 BKN250
     FM231400 21014G22KT P6SM SCT030 BKN100
     FM231800 22015G23KT P6SM SCT030 BKN080
     FM240100 22011KT P6SM VCTS SCT025CB BKN050 BKN100=

USA.gov is the U.S. government's official web portal to all federal, state and local government web resources and services.